createdAt,value
2022-08-04T00:00:15.696Z,1001.77
2022-08-04T00:01:15.718Z,1001.77
2022-08-04T00:02:15.741Z,1001.75
2022-08-04T00:03:15.669Z,1001.73
2022-08-04T00:04:15.661Z,1001.73
2022-08-04T00:05:15.654Z,1001.73
2022-08-04T00:06:15.642Z,1001.71
2022-08-04T00:07:15.633Z,1001.72
2022-08-04T00:08:15.730Z,1001.74
2022-08-04T00:09:15.619Z,1001.75
2022-08-04T00:10:15.629Z,1001.72
2022-08-04T00:11:15.842Z,1001.74
2022-08-04T00:12:15.595Z,1001.70
2022-08-04T00:13:15.585Z,1001.74
2022-08-04T00:14:15.605Z,1001.74
2022-08-04T00:15:16.491Z,1001.77
2022-08-04T00:16:15.565Z,1001.75
2022-08-04T00:17:15.551Z,1001.75
2022-08-04T00:18:15.552Z,1001.76
2022-08-04T00:19:15.587Z,1001.73
2022-08-04T00:20:15.535Z,1001.78
2022-08-04T00:21:15.544Z,1001.74
2022-08-04T00:22:15.513Z,1001.78
2022-08-04T00:23:15.503Z,1001.76
2022-08-04T00:24:15.503Z,1001.73
2022-08-04T00:25:15.497Z,1001.72
2022-08-04T00:26:15.485Z,1001.74
2022-08-04T00:27:15.474Z,1001.70
2022-08-04T00:28:15.471Z,1001.71
2022-08-04T00:29:15.499Z,1001.70
2022-08-04T00:30:15.477Z,1001.68
2022-08-04T00:31:15.974Z,1001.70
2022-08-04T00:32:15.436Z,1001.67
2022-08-04T00:33:15.428Z,1001.71
2022-08-04T00:34:15.473Z,1001.74
2022-08-04T00:35:15.407Z,1001.65
2022-08-04T00:36:15.404Z,1001.68
2022-08-04T00:37:15.394Z,1001.72
2022-08-04T00:38:15.390Z,1001.68
2022-08-04T00:39:15.413Z,1001.71
2022-08-04T00:40:15.373Z,1001.68
2022-08-04T00:41:15.384Z,1001.69
2022-08-04T00:42:15.354Z,1001.71
2022-08-04T00:43:15.347Z,1001.68
2022-08-04T00:44:15.338Z,1001.72
2022-08-04T00:45:15.337Z,1001.69
2022-08-04T00:46:17.282Z,1001.74
2022-08-04T00:47:15.311Z,1001.71
2022-08-04T00:48:15.308Z,1001.69
2022-08-04T00:49:15.298Z,1001.72
2022-08-04T00:50:15.290Z,1001.70
2022-08-04T00:51:15.310Z,1001.68
2022-08-04T00:52:32.054Z,1001.66
2022-08-04T00:53:15.263Z,1001.65
2022-08-04T00:54:15.260Z,1001.63
2022-08-04T00:55:15.273Z,1001.59
2022-08-04T00:56:15.241Z,1001.60
2022-08-04T00:57:29.975Z,1001.65
2022-08-04T00:58:15.225Z,1001.58
2022-08-04T00:59:15.218Z,1001.60
2022-08-04T01:00:15.260Z,1001.58
2022-08-04T01:01:15.219Z,1001.62
2022-08-04T01:02:15.190Z,1001.61
2022-08-04T01:03:15.183Z,1001.59
2022-08-04T01:04:15.183Z,1001.61
2022-08-04T01:05:15.162Z,1001.58
2022-08-04T01:06:15.191Z,1001.55
2022-08-04T01:07:15.151Z,1001.57
2022-08-04T01:08:15.142Z,1001.56
2022-08-04T01:09:21.202Z,1001.55
2022-08-04T01:10:17.540Z,1001.55
2022-08-04T01:11:15.161Z,1001.55
2022-08-04T01:12:15.106Z,1001.58
2022-08-04T01:13:15.670Z,1001.58
2022-08-04T01:14:15.109Z,1001.59
2022-08-04T01:15:15.079Z,1001.60
2022-08-04T01:16:15.104Z,1001.60
2022-08-04T01:17:15.107Z,1001.60
2022-08-04T01:18:15.063Z,1001.59
2022-08-04T01:19:15.051Z,1001.64
2022-08-04T01:20:15.043Z,1001.61
2022-08-04T01:21:15.033Z,1001.64
2022-08-04T01:22:15.049Z,1001.59
2022-08-04T01:23:15.011Z,1001.61
2022-08-04T01:24:15.007Z,1001.59
2022-08-04T01:25:14.994Z,1001.58
2022-08-04T01:26:43.454Z,1001.58
2022-08-04T01:27:15.056Z,1001.57
2022-08-04T01:28:14.976Z,1001.54
2022-08-04T01:29:16.026Z,1001.54
2022-08-04T01:30:14.961Z,1001.53
2022-08-04T01:31:14.947Z,1001.54
2022-08-04T01:32:14.938Z,1001.56
2022-08-04T01:33:14.953Z,1001.55
2022-08-04T01:34:14.961Z,1001.57
2022-08-04T01:35:21.776Z,1001.52
2022-08-04T01:36:14.926Z,1001.55
2022-08-04T01:37:14.893Z,1001.52
2022-08-04T01:38:18.292Z,1001.54
2022-08-04T01:39:14.990Z,1001.56
2022-08-04T01:40:14.877Z,1001.53
2022-08-04T01:41:14.857Z,1001.51
2022-08-04T01:42:31.551Z,1001.51
2022-08-04T01:43:14.843Z,1001.53
2022-08-04T01:44:14.836Z,1001.48
2022-08-04T01:45:14.852Z,1001.52
2022-08-04T01:46:14.817Z,1001.49
2022-08-04T01:47:14.806Z,1001.47
2022-08-04T01:48:14.797Z,1001.45
2022-08-04T01:49:14.790Z,1001.47
2022-08-04T01:50:14.839Z,1001.48
2022-08-04T01:51:14.771Z,1001.44
2022-08-04T01:52:14.767Z,1001.45
2022-08-04T01:53:14.751Z,1001.47
2022-08-04T01:54:14.766Z,1001.44
2022-08-04T01:55:14.734Z,1001.45
2022-08-04T01:56:14.758Z,1001.47
2022-08-04T01:57:37.748Z,1001.47
2022-08-04T01:58:14.708Z,1001.42
2022-08-04T01:59:14.699Z,1001.40
2022-08-04T02:00:14.697Z,1001.43
2022-08-04T02:01:14.805Z,1001.43
2022-08-04T02:02:14.791Z,1001.41
2022-08-04T02:03:14.665Z,1001.42
2022-08-04T02:04:21.024Z,1001.36
2022-08-04T02:05:14.648Z,1001.38
2022-08-04T02:06:14.682Z,1001.40
2022-08-04T02:07:14.646Z,1001.39
2022-08-04T02:08:14.624Z,1001.37
2022-08-04T02:09:14.616Z,1001.37
2022-08-04T02:10:14.605Z,1001.36
2022-08-04T02:11:14.598Z,1001.33
2022-08-04T02:12:16.183Z,1001.32
2022-08-04T02:13:14.613Z,1001.31
2022-08-04T02:14:14.572Z,1001.34
2022-08-04T02:15:14.561Z,1001.27
2022-08-04T02:16:14.560Z,1001.22
2022-08-04T02:17:14.564Z,1001.24
2022-08-04T02:18:14.535Z,1001.23
2022-08-04T02:19:14.752Z,1001.18
2022-08-04T02:20:14.530Z,1001.24
2022-08-04T02:21:14.536Z,1001.23
2022-08-04T02:22:14.498Z,1001.20
2022-08-04T02:23:14.496Z,1001.24
2022-08-04T02:24:14.482Z,1001.18
2022-08-04T02:25:14.475Z,1001.20
2022-08-04T02:26:22.794Z,1001.18
2022-08-04T02:27:14.456Z,1001.17
2022-08-04T02:28:14.478Z,1001.16
2022-08-04T02:29:14.474Z,1001.16
2022-08-04T02:30:14.427Z,1001.16
2022-08-04T02:31:14.421Z,1001.16
2022-08-04T02:32:14.410Z,1001.17
2022-08-04T02:33:14.406Z,1001.16
2022-08-04T02:34:14.394Z,1001.15
2022-08-04T02:35:14.387Z,1001.16
2022-08-04T02:36:14.375Z,1001.15
2022-08-04T02:37:14.371Z,1001.19
2022-08-04T02:38:14.620Z,1001.15
2022-08-04T02:39:14.393Z,1001.12
2022-08-04T02:40:14.344Z,1001.13
2022-08-04T02:41:14.331Z,1001.14
2022-08-04T02:42:14.327Z,1001.12
2022-08-04T02:43:14.316Z,1001.13
2022-08-04T02:44:14.332Z,1001.13
2022-08-04T02:45:14.329Z,1001.07
2022-08-04T02:46:17.666Z,1001.09
2022-08-04T02:47:14.293Z,1001.08
2022-08-04T02:48:29.824Z,1001.05
2022-08-04T02:49:14.293Z,1001.07
2022-08-04T02:50:14.254Z,1001.04
2022-08-04T02:51:14.253Z,1001.05
2022-08-04T02:52:14.229Z,1001.01
2022-08-04T02:53:14.229Z,1001.03
2022-08-04T02:54:14.241Z,1000.98
2022-08-04T02:55:14.234Z,1000.98
2022-08-04T02:56:14.197Z,1000.99
2022-08-04T02:57:14.231Z,1000.94
2022-08-04T02:58:14.178Z,1000.95
2022-08-04T02:59:14.172Z,1000.92
2022-08-04T03:00:14.197Z,1000.90
2022-08-04T03:01:14.177Z,1000.92
2022-08-04T03:02:14.142Z,1000.87
2022-08-04T03:03:14.137Z,1000.83
2022-08-04T03:04:22.131Z,1000.82
2022-08-04T03:05:14.119Z,1000.80
2022-08-04T03:06:14.178Z,1000.78
2022-08-04T03:07:14.410Z,1000.82
2022-08-04T03:08:14.088Z,1000.82
2022-08-04T03:09:14.084Z,1000.81
2022-08-04T03:10:14.070Z,1000.80
2022-08-04T03:11:14.066Z,1000.82
2022-08-04T03:12:14.111Z,1000.82
2022-08-04T03:13:14.052Z,1000.80
2022-08-04T03:14:14.036Z,1000.80
2022-08-04T03:15:14.032Z,1000.79
2022-08-04T03:16:14.021Z,1000.77
2022-08-04T03:17:14.013Z,1000.77
2022-08-04T03:18:14.162Z,1000.79
2022-08-04T03:19:13.997Z,1000.78
2022-08-04T03:20:13.985Z,1000.74
2022-08-04T03:21:13.976Z,1000.76
2022-08-04T03:22:13.964Z,1000.75
2022-08-04T03:23:14.333Z,1000.74
2022-08-04T03:24:17.029Z,1000.73
2022-08-04T03:25:13.942Z,1000.79
2022-08-04T03:26:13.931Z,1000.75
2022-08-04T03:27:13.927Z,1000.76
2022-08-04T03:28:13.916Z,1000.77
2022-08-04T03:29:13.945Z,1000.76
2022-08-04T03:30:13.912Z,1000.76
2022-08-04T03:31:13.894Z,1000.76
2022-08-04T03:32:13.876Z,1000.72
2022-08-04T03:33:13.874Z,1000.70
2022-08-04T03:34:13.866Z,1000.71
2022-08-04T03:35:13.860Z,1000.70
2022-08-04T03:36:13.854Z,1000.72
2022-08-04T03:37:13.838Z,1000.71
2022-08-04T03:38:13.826Z,1000.67
2022-08-04T03:39:13.840Z,1000.70
2022-08-04T03:40:13.835Z,1000.66
2022-08-04T03:41:13.803Z,1000.67
2022-08-04T03:42:16.024Z,1000.63
2022-08-04T03:43:57.374Z,1000.65
2022-08-04T03:44:13.771Z,1000.67
2022-08-04T03:45:23.184Z,1000.65
2022-08-04T03:46:13.757Z,1000.64
2022-08-04T03:47:13.817Z,1000.59
2022-08-04T03:48:13.732Z,1000.58
2022-08-04T03:49:13.731Z,1000.60
2022-08-04T03:50:13.722Z,1000.58
2022-08-04T03:51:35.055Z,1000.61
2022-08-04T03:52:13.763Z,1000.58
2022-08-04T03:53:13.716Z,1000.61
2022-08-04T03:54:13.685Z,1000.56
2022-08-04T03:55:13.677Z,1000.57
2022-08-04T03:56:13.665Z,1000.55
2022-08-04T03:57:13.663Z,1000.56
2022-08-04T03:58:13.650Z,1000.56
2022-08-04T03:59:13.639Z,1000.57
2022-08-04T04:00:13.628Z,1000.60
2022-08-04T04:01:13.625Z,1000.58
2022-08-04T04:02:13.662Z,1000.58
2022-08-04T04:03:13.617Z,1000.57
2022-08-04T04:04:13.653Z,1000.53
2022-08-04T04:05:13.596Z,1000.55
2022-08-04T04:06:15.091Z,1000.51
2022-08-04T04:07:14.330Z,1000.49
2022-08-04T04:08:18.739Z,1000.52
2022-08-04T04:09:16.297Z,1000.49
2022-08-04T04:10:13.581Z,1000.48
2022-08-04T04:11:13.542Z,1000.50
2022-08-04T04:12:13.528Z,1000.49
2022-08-04T04:13:13.520Z,1000.44
2022-08-04T04:14:13.510Z,1000.49
2022-08-04T04:15:13.504Z,1000.48
2022-08-04T04:16:13.533Z,1000.52
2022-08-04T04:17:13.515Z,1000.50
2022-08-04T04:18:13.471Z,1000.53
2022-08-04T04:19:13.466Z,1000.52
2022-08-04T04:20:13.455Z,1000.53
2022-08-04T04:21:13.444Z,1000.51
2022-08-04T04:22:13.482Z,1000.50
2022-08-04T04:23:13.429Z,1000.51
2022-08-04T04:24:13.419Z,1000.48
2022-08-04T04:25:13.412Z,1000.48
2022-08-04T04:26:13.398Z,1000.52
2022-08-04T04:27:13.476Z,1000.50
2022-08-04T04:28:46.490Z,1000.51
2022-08-04T04:29:13.375Z,1000.53
2022-08-04T04:30:13.361Z,1000.55
2022-08-04T04:31:13.360Z,1000.59
2022-08-04T04:32:13.352Z,1000.57
2022-08-04T04:33:13.340Z,1000.57
2022-08-04T04:34:13.329Z,1000.56
2022-08-04T04:35:13.323Z,1000.55
2022-08-04T04:36:13.348Z,1000.55
2022-08-04T04:37:13.369Z,1000.54
2022-08-04T04:38:13.293Z,1000.53
2022-08-04T04:39:13.362Z,1000.55
2022-08-04T04:40:13.276Z,1000.52
2022-08-04T04:41:13.267Z,1000.55
2022-08-04T04:42:13.259Z,1000.50
2022-08-04T04:43:13.251Z,1000.53
2022-08-04T04:44:13.239Z,1000.47
2022-08-04T04:45:13.235Z,1000.45
2022-08-04T04:46:15.313Z,1000.47
2022-08-04T04:47:13.244Z,1000.49
2022-08-04T04:48:13.205Z,1000.45
2022-08-04T04:49:13.196Z,1000.47
2022-08-04T04:50:13.213Z,1000.45
2022-08-04T04:51:13.177Z,1000.40
2022-08-04T04:52:13.166Z,1000.44
2022-08-04T04:53:13.162Z,1000.44
2022-08-04T04:54:13.167Z,1000.42
2022-08-04T04:55:13.173Z,1000.41
2022-08-04T04:56:13.136Z,1000.40
2022-08-04T04:57:13.139Z,1000.44
2022-08-04T04:58:13.114Z,1000.42
2022-08-04T04:59:13.106Z,1000.38
2022-08-04T05:00:13.100Z,1000.39
2022-08-04T05:01:13.093Z,1000.38
2022-08-04T05:02:13.076Z,1000.40
2022-08-04T05:03:13.074Z,1000.41
2022-08-04T05:04:13.063Z,1000.42
2022-08-04T05:05:13.055Z,1000.43
2022-08-04T05:06:13.109Z,1000.40
2022-08-04T05:07:13.070Z,1000.42
2022-08-04T05:08:43.339Z,1000.38
2022-08-04T05:09:13.021Z,1000.38
2022-08-04T05:10:13.006Z,1000.36
2022-08-04T05:11:13.008Z,1000.39
2022-08-04T05:14:32.063Z,1000.40
2022-08-04T05:14:35.656Z,1000.39
2022-08-04T05:14:36.438Z,1000.42
2022-08-04T05:15:12.966Z,1000.41
2022-08-04T05:16:12.952Z,1000.40
2022-08-04T05:17:12.986Z,1000.41
2022-08-04T05:18:12.954Z,1000.36
2022-08-04T05:19:12.944Z,1000.37
2022-08-04T05:20:12.917Z,1000.40
2022-08-04T05:21:12.910Z,1000.36
2022-08-04T05:22:14.809Z,1000.38
2022-08-04T05:23:12.897Z,1000.37
2022-08-04T05:24:12.887Z,1000.38
2022-08-04T05:25:12.878Z,1000.35
2022-08-04T05:26:12.861Z,1000.33
2022-08-04T05:27:12.950Z,1000.37
2022-08-04T05:28:12.858Z,1000.33
2022-08-04T05:29:12.841Z,1000.40
2022-08-04T05:30:12.827Z,1000.35
2022-08-04T05:31:12.826Z,1000.35
2022-08-04T05:32:12.816Z,1000.37
2022-08-04T05:33:12.843Z,1000.32
2022-08-04T05:34:12.792Z,1000.30
2022-08-04T05:35:12.790Z,1000.35
2022-08-04T05:36:18.418Z,1000.36
2022-08-04T05:37:12.854Z,1000.33
2022-08-04T05:38:12.812Z,1000.39
2022-08-04T05:39:12.820Z,1000.33
2022-08-04T05:40:12.743Z,1000.37
2022-08-04T05:41:12.733Z,1000.33
2022-08-04T05:42:12.723Z,1000.37
2022-08-04T05:43:12.741Z,1000.33
2022-08-04T05:44:12.759Z,1000.35
2022-08-04T05:45:12.697Z,1000.33
2022-08-04T05:46:12.695Z,1000.32
2022-08-04T05:47:12.685Z,1000.32
2022-08-04T05:48:12.669Z,1000.33
2022-08-04T05:49:20.465Z,1000.30
2022-08-04T05:50:12.654Z,1000.31
2022-08-04T05:51:12.642Z,1000.31
2022-08-04T05:52:12.637Z,1000.32
2022-08-04T05:53:12.630Z,1000.27
2022-08-04T05:54:12.616Z,1000.31
2022-08-04T05:55:12.641Z,1000.30
2022-08-04T05:56:12.664Z,1000.28
2022-08-04T05:57:12.592Z,1000.26
2022-08-04T05:58:12.583Z,1000.28
2022-08-04T05:59:12.576Z,1000.28
2022-08-04T06:00:39.070Z,1000.25
2022-08-04T06:01:12.558Z,1000.26
2022-08-04T06:02:12.592Z,1000.29
2022-08-04T06:03:12.543Z,1000.28
2022-08-04T06:04:12.530Z,1000.25
2022-08-04T06:05:12.523Z,1000.27
2022-08-04T06:06:12.512Z,1000.24
2022-08-04T06:07:12.510Z,1000.25
2022-08-04T06:08:14.063Z,1000.24
2022-08-04T06:09:12.494Z,1000.26
2022-08-04T06:10:12.487Z,1000.27
2022-08-04T06:11:12.500Z,1000.29
2022-08-04T06:12:12.483Z,1000.24
2022-08-04T06:13:48.150Z,1000.23
2022-08-04T06:14:12.442Z,1000.25
2022-08-04T06:15:12.438Z,1000.23
2022-08-04T06:16:28.994Z,1000.22
2022-08-04T06:18:32.397Z,1000.24
2022-08-04T06:19:57.270Z,1000.22
2022-08-04T06:20:03.667Z,1000.21
2022-08-04T06:20:19.168Z,1000.23
2022-08-04T06:21:15.912Z,1000.20
2022-08-04T06:22:12.411Z,1000.20
2022-08-04T06:23:12.368Z,1000.21
2022-08-04T06:24:12.356Z,1000.21
2022-08-04T06:25:12.352Z,1000.18
2022-08-04T06:26:12.338Z,1000.18
2022-08-04T06:27:12.375Z,1000.19
2022-08-04T06:28:12.324Z,1000.19
2022-08-04T06:29:12.319Z,1000.18
2022-08-04T06:30:12.303Z,1000.19
2022-08-04T06:32:27.478Z,1000.21
2022-08-04T06:32:29.490Z,1000.23
2022-08-04T06:33:12.282Z,1000.19
2022-08-04T06:34:12.274Z,1000.22
2022-08-04T06:35:12.271Z,1000.19
2022-08-04T06:36:12.285Z,1000.21
2022-08-04T06:37:12.276Z,1000.22
2022-08-04T06:38:12.242Z,1000.20
2022-08-04T06:39:12.274Z,1000.20
2022-08-04T06:40:29.904Z,1000.20
2022-08-04T06:41:12.217Z,1000.22
2022-08-04T06:42:22.178Z,1000.21
2022-08-04T06:43:12.196Z,1000.19
2022-08-04T06:44:12.192Z,1000.20
2022-08-04T06:45:12.178Z,1000.20
2022-08-04T06:46:12.177Z,1000.23
2022-08-04T06:47:13.794Z,1000.21
2022-08-04T06:48:12.192Z,1000.21
2022-08-04T06:49:12.144Z,1000.21
2022-08-04T06:51:26.165Z,1000.20
2022-08-04T06:51:28.204Z,1000.20
2022-08-04T06:52:12.122Z,1000.22
2022-08-04T06:53:12.121Z,1000.17
2022-08-04T06:54:12.106Z,1000.18
2022-08-04T06:55:12.118Z,1000.18
2022-08-04T06:56:12.086Z,1000.20
2022-08-04T06:57:12.079Z,1000.16
2022-08-04T06:58:12.073Z,1000.17
2022-08-04T06:59:12.085Z,1000.13
2022-08-04T07:00:12.059Z,1000.14
2022-08-04T07:01:12.046Z,1000.10
2022-08-04T07:02:12.084Z,1000.10
2022-08-04T07:03:12.030Z,1000.15
2022-08-04T07:04:12.024Z,1000.11
2022-08-04T07:05:12.012Z,1000.11
2022-08-04T07:06:14.550Z,1000.06
2022-08-04T07:07:11.997Z,1000.11
2022-08-04T07:08:11.987Z,1000.08
2022-08-04T07:09:11.981Z,1000.09
2022-08-04T07:10:11.974Z,1000.09
2022-08-04T07:11:12.019Z,1000.08
2022-08-04T07:12:11.958Z,1000.03
2022-08-04T07:13:11.951Z,999.98
2022-08-04T07:14:11.939Z,1000.00
2022-08-04T07:15:14.315Z,1000.00
2022-08-04T07:16:11.961Z,1000.00
2022-08-04T07:17:11.912Z,999.98
2022-08-04T07:18:11.908Z,1000.00
2022-08-04T07:19:13.829Z,999.96
2022-08-04T07:20:11.890Z,1000.00
2022-08-04T07:21:11.890Z,999.99
2022-08-04T07:22:24.811Z,999.98
2022-08-04T07:23:11.869Z,999.99
2022-08-04T07:24:11.869Z,999.95
2022-08-04T07:25:12.974Z,999.98
2022-08-04T07:26:13.428Z,999.95
2022-08-04T07:27:11.862Z,999.91
2022-08-04T07:28:11.830Z,999.93
2022-08-04T07:29:11.858Z,999.93
2022-08-04T07:30:11.809Z,999.94
2022-08-04T07:31:33.421Z,999.90
2022-08-04T07:32:11.805Z,999.89
2022-08-04T07:33:11.791Z,999.93
2022-08-04T07:34:17.276Z,999.92
2022-08-04T07:35:20.040Z,999.92
2022-08-04T07:36:11.997Z,999.96
2022-08-04T07:37:11.763Z,999.92
2022-08-04T07:38:11.747Z,999.96
2022-08-04T07:39:11.851Z,999.93
2022-08-04T07:40:11.736Z,999.92
2022-08-04T07:42:11.715Z,999.91
2022-08-04T07:43:11.747Z,999.92
2022-08-04T07:44:11.702Z,999.95
2022-08-04T07:45:11.693Z,999.94
2022-08-04T07:46:11.683Z,999.94
2022-08-04T07:47:11.687Z,999.91
2022-08-04T07:48:11.669Z,999.96
2022-08-04T07:49:11.703Z,999.95
2022-08-04T07:50:11.696Z,999.92
2022-08-04T07:51:11.646Z,999.94
2022-08-04T07:52:11.638Z,999.90
2022-08-04T07:53:55.596Z,999.93
2022-08-04T07:54:11.625Z,999.92
2022-08-04T07:55:11.622Z,999.91
2022-08-04T07:56:11.650Z,999.97
2022-08-04T07:57:20.974Z,999.98
2022-08-04T07:58:11.591Z,999.97
2022-08-04T07:59:11.615Z,999.95
2022-08-04T08:00:11.578Z,999.96
2022-08-04T08:01:11.576Z,999.93
2022-08-04T08:02:11.576Z,999.95
2022-08-04T08:03:11.645Z,999.93
2022-08-04T08:04:11.553Z,999.90
2022-08-04T08:05:11.568Z,999.93
2022-08-04T08:06:30.331Z,999.93
2022-08-04T08:07:11.529Z,999.87
2022-08-04T08:08:11.588Z,999.87
2022-08-04T08:09:13.595Z,999.80
2022-08-04T08:10:11.512Z,999.80
2022-08-04T08:11:11.495Z,999.83
2022-08-04T08:12:37.804Z,999.75
2022-08-04T08:13:11.482Z,999.75
2022-08-04T08:14:11.502Z,999.74
2022-08-04T08:15:11.730Z,999.76
2022-08-04T08:16:11.460Z,999.77
2022-08-04T08:17:11.459Z,999.79
2022-08-04T08:18:11.498Z,999.79
2022-08-04T08:19:11.465Z,999.75
2022-08-04T08:20:11.454Z,999.71
2022-08-04T08:21:11.429Z,999.75
2022-08-04T08:22:11.416Z,999.71
2022-08-04T08:23:11.417Z,999.72
2022-08-04T08:24:11.430Z,999.72
2022-08-04T08:25:11.408Z,999.69
2022-08-04T08:26:11.422Z,999.67
2022-08-04T08:27:11.385Z,999.67
2022-08-04T08:28:11.371Z,999.68
2022-08-04T08:29:11.366Z,999.65
2022-08-04T08:30:11.355Z,999.64
2022-08-04T08:31:11.356Z,999.66
2022-08-04T08:32:11.345Z,999.64
2022-08-04T08:33:11.338Z,999.63
2022-08-04T08:34:11.328Z,999.66
2022-08-04T08:35:11.327Z,999.70
2022-08-04T08:36:11.327Z,999.64
2022-08-04T08:37:11.362Z,999.64
2022-08-04T08:38:11.306Z,999.65
2022-08-04T08:39:11.332Z,999.67
2022-08-04T08:40:11.287Z,999.63
2022-08-04T08:41:11.290Z,999.66
2022-08-04T08:42:11.274Z,999.67
2022-08-04T08:44:04.774Z,999.65
2022-08-04T08:44:11.258Z,999.66
2022-08-04T08:45:11.261Z,999.69
2022-08-04T08:46:11.262Z,999.71
2022-08-04T08:47:11.244Z,999.67
2022-08-04T08:48:11.257Z,999.66
2022-08-04T08:49:11.265Z,999.63
2022-08-04T08:50:11.223Z,999.63
2022-08-04T08:51:11.233Z,999.62
2022-08-04T08:52:11.219Z,999.61
2022-08-04T08:53:11.204Z,999.57
2022-08-04T08:54:11.194Z,999.61
2022-08-04T08:55:11.275Z,999.60
2022-08-04T08:56:11.181Z,999.63
2022-08-04T08:57:11.176Z,999.60
2022-08-04T08:58:11.169Z,999.60
2022-08-04T08:59:15.242Z,999.60
2022-08-04T09:00:11.158Z,999.61
2022-08-04T09:01:11.298Z,999.57
2022-08-04T09:02:11.143Z,999.57
2022-08-04T09:03:11.144Z,999.56
2022-08-04T09:04:11.131Z,999.60
2022-08-04T09:05:11.126Z,999.60
2022-08-04T09:06:11.117Z,999.60
2022-08-04T09:07:11.143Z,999.60
2022-08-04T09:08:11.105Z,999.57
2022-08-04T09:09:11.122Z,999.57
2022-08-04T09:10:11.092Z,999.56
2022-08-04T09:11:11.090Z,999.57
2022-08-04T09:12:11.108Z,999.57
2022-08-04T09:13:11.087Z,999.58
2022-08-04T09:14:11.075Z,999.58
2022-08-04T09:15:11.084Z,999.61
2022-08-04T09:16:11.064Z,999.56
2022-08-04T09:17:11.054Z,999.51
2022-08-04T09:18:11.070Z,999.48
2022-08-04T09:19:22.696Z,999.58
2022-08-04T09:20:11.055Z,999.58
2022-08-04T09:21:11.035Z,999.50
2022-08-04T09:22:12.764Z,999.49
2022-08-04T09:23:11.050Z,999.47
2022-08-04T09:24:36.480Z,999.48
2022-08-04T09:25:11.049Z,999.49
2022-08-04T09:26:11.002Z,999.49
2022-08-04T09:27:10.998Z,999.51
2022-08-04T09:28:10.991Z,999.49
2022-08-04T09:29:11.005Z,999.53
2022-08-04T09:30:11.016Z,999.51
2022-08-04T09:31:10.979Z,999.57
2022-08-04T09:32:10.985Z,999.54
2022-08-04T09:33:11.000Z,999.58
2022-08-04T09:34:10.962Z,999.49
2022-08-04T09:35:15.334Z,999.45
2022-08-04T09:36:10.995Z,999.46
2022-08-04T09:37:10.957Z,999.39
2022-08-04T09:38:10.948Z,999.41
2022-08-04T09:39:10.989Z,999.40
2022-08-04T09:40:14.482Z,999.39
2022-08-04T09:41:20.558Z,999.39
2022-08-04T09:42:10.965Z,999.38
2022-08-04T09:43:10.938Z,999.32
2022-08-04T09:44:50.860Z,999.34
2022-08-04T09:45:13.402Z,999.33
2022-08-04T09:46:10.928Z,999.31
2022-08-04T09:47:10.990Z,999.30
2022-08-04T09:48:10.929Z,999.26
2022-08-04T09:49:10.936Z,999.29
2022-08-04T09:50:10.931Z,999.26
2022-08-04T09:51:10.929Z,999.22
2022-08-04T09:52:10.935Z,999.24
2022-08-04T09:53:10.990Z,999.30
2022-08-04T09:54:10.933Z,999.27
2022-08-04T09:55:10.932Z,999.29
2022-08-04T09:56:10.953Z,999.26
2022-08-04T09:57:10.931Z,999.23
2022-08-04T09:58:10.961Z,999.20
2022-08-04T09:59:11.032Z,999.17
2022-08-04T10:00:10.967Z,999.15
2022-08-04T10:01:10.938Z,999.17
2022-08-04T10:02:10.937Z,999.09
2022-08-04T10:03:13.642Z,999.07
2022-08-04T10:04:10.964Z,999.07
2022-08-04T10:05:10.944Z,999.03
2022-08-04T10:06:10.942Z,999.02
2022-08-04T10:07:10.968Z,998.97
2022-08-04T10:08:10.995Z,999.01
2022-08-04T10:09:11.000Z,998.99
2022-08-04T10:10:10.949Z,998.96
2022-08-04T10:11:10.967Z,998.97
2022-08-04T10:12:10.950Z,998.99
2022-08-04T10:13:10.956Z,998.89
2022-08-04T10:14:10.953Z,998.84
2022-08-04T10:15:11.015Z,998.84
2022-08-04T10:16:10.969Z,998.79
2022-08-04T10:17:10.976Z,998.75
2022-08-04T10:18:10.964Z,998.67
2022-08-04T10:19:10.980Z,998.65
2022-08-04T10:20:10.968Z,998.56
2022-08-04T10:21:15.505Z,998.54
2022-08-04T10:22:29.962Z,998.49
2022-08-04T10:23:12.281Z,998.42
2022-08-04T10:24:10.978Z,998.34
2022-08-04T10:26:02.723Z,998.41
2022-08-04T10:26:10.983Z,998.44
2022-08-04T10:27:10.985Z,998.41
2022-08-04T10:28:11.036Z,998.42
2022-08-04T10:29:10.999Z,998.37
2022-08-04T10:30:11.003Z,998.37
2022-08-04T10:31:11.037Z,998.33
2022-08-04T10:32:11.022Z,998.30
2022-08-04T10:33:11.008Z,998.36
2022-08-04T10:34:11.007Z,998.31
2022-08-04T10:35:11.011Z,998.28
2022-08-04T10:36:11.013Z,998.21
2022-08-04T10:37:11.053Z,998.29
2022-08-04T10:38:11.068Z,998.29
2022-08-04T10:39:13.731Z,998.36
2022-08-04T10:40:11.145Z,998.37
2022-08-04T10:41:11.033Z,998.38
2022-08-04T10:42:11.030Z,998.33
2022-08-04T10:43:21.904Z,998.32
2022-08-04T10:44:11.080Z,998.36
2022-08-04T10:45:11.041Z,998.29
2022-08-04T10:46:11.052Z,998.29
2022-08-04T10:47:11.046Z,998.37
2022-08-04T10:48:11.048Z,998.34
2022-08-04T10:49:11.085Z,998.36
2022-08-04T10:50:11.049Z,998.38
2022-08-04T10:51:11.060Z,998.35
2022-08-04T10:52:11.057Z,998.39
2022-08-04T10:53:11.076Z,998.42
2022-08-04T10:54:11.060Z,998.40
2022-08-04T10:55:11.083Z,998.39
2022-08-04T10:56:11.085Z,998.37
2022-08-04T10:57:11.073Z,998.35
2022-08-04T10:58:11.058Z,998.36
2022-08-04T10:59:11.084Z,998.45
2022-08-04T11:00:11.063Z,998.39
2022-08-04T11:01:11.092Z,998.39
2022-08-04T11:02:14.947Z,998.35
2022-08-04T11:03:11.108Z,998.44
2022-08-04T11:04:11.100Z,998.44
2022-08-04T11:05:11.060Z,998.44
2022-08-04T11:06:11.058Z,998.42
2022-08-04T11:07:11.054Z,998.43
2022-08-04T11:08:13.561Z,998.41
2022-08-04T11:09:13.945Z,998.42
2022-08-04T11:10:11.058Z,998.46
2022-08-04T11:11:11.054Z,998.46
2022-08-04T11:12:11.062Z,998.49
2022-08-04T11:13:29.397Z,998.43
2022-08-04T11:14:11.058Z,998.44
2022-08-04T11:15:11.049Z,998.43
2022-08-04T11:16:11.076Z,998.42
2022-08-04T11:17:11.065Z,998.41
2022-08-04T11:18:16.962Z,998.45
2022-08-04T11:19:11.042Z,998.42
2022-08-04T11:20:32.221Z,998.42
2022-08-04T11:21:11.053Z,998.46
2022-08-04T11:22:11.043Z,998.41
2022-08-04T11:23:11.058Z,998.44
2022-08-04T11:24:11.051Z,998.48
2022-08-04T11:25:11.060Z,998.49
2022-08-04T11:26:11.059Z,998.50
2022-08-04T11:27:11.028Z,998.49
2022-08-04T11:28:11.035Z,998.48
2022-08-04T11:29:11.025Z,998.50
2022-08-04T11:30:13.305Z,998.48
2022-08-04T11:31:11.021Z,998.51
2022-08-04T11:32:11.026Z,998.48
2022-08-04T11:33:11.073Z,998.52
2022-08-04T11:34:11.018Z,998.50
2022-08-04T11:35:11.020Z,998.49
2022-08-04T11:36:11.014Z,998.50
2022-08-04T11:37:14.141Z,998.51
2022-08-04T11:38:11.009Z,998.53
2022-08-04T11:39:11.076Z,998.55
2022-08-04T11:40:11.099Z,998.51
2022-08-04T11:41:11.042Z,998.50
2022-08-04T11:42:11.010Z,998.52
2022-08-04T11:43:11.001Z,998.50
2022-08-04T11:44:12.713Z,998.47
2022-08-04T11:45:11.019Z,998.46
2022-08-04T11:46:11.008Z,998.48
2022-08-04T11:47:11.000Z,998.54
2022-08-04T11:48:10.992Z,998.55
2022-08-04T11:49:10.989Z,998.56
2022-08-04T11:50:11.006Z,998.56
2022-08-04T11:51:10.998Z,998.44
2022-08-04T11:52:10.987Z,998.47
2022-08-04T11:53:10.993Z,998.50
2022-08-04T11:54:10.983Z,998.48
2022-08-04T11:55:11.031Z,998.49
2022-08-04T11:56:11.487Z,998.51
2022-08-04T11:57:10.984Z,998.56
2022-08-04T11:58:10.986Z,998.56
2022-08-04T11:59:10.984Z,998.57
2022-08-04T12:00:11.237Z,998.61
2022-08-04T12:01:11.011Z,998.52
2022-08-04T12:02:11.061Z,998.54
2022-08-04T12:03:10.991Z,998.58
2022-08-04T12:04:11.023Z,998.57
2022-08-04T12:05:32.386Z,998.59
2022-08-04T12:06:11.037Z,998.64
2022-08-04T12:07:35.396Z,998.64
2022-08-04T12:08:11.015Z,998.63
2022-08-04T12:09:10.991Z,998.64
2022-08-04T12:10:10.987Z,998.64
2022-08-04T12:11:11.019Z,998.63
2022-08-04T12:12:10.989Z,998.66
2022-08-04T12:13:10.989Z,998.66
2022-08-04T12:14:10.985Z,998.62
2022-08-04T12:15:10.984Z,998.60